sensor_id;sensor_type;location;lat;lon;timestamp;P1;durP1;ratioP1;P2;durP2;ratioP2
18748;SDS011;9503;53.560;10.246;2022-10-16T00:01:13;16.17;;;9.87;;
18748;SDS011;9503;53.560;10.246;2022-10-16T00:03:41;14.93;;;9.17;;
18748;SDS011;9503;53.560;10.246;2022-10-16T00:06:09;12.80;;;9.50;;
18748;SDS011;9503;53.560;10.246;2022-10-16T00:08:38;12.43;;;9.20;;
18748;SDS011;9503;53.560;10.246;2022-10-16T00:11:07;13.90;;;9.43;;
18748;SDS011;9503;53.560;10.246;2022-10-16T00:13:36;13.77;;;8.63;;
18748;SDS011;9503;53.560;10.246;2022-10-16T00:16:04;14.97;;;9.47;;
18748;SDS011;9503;53.560;10.246;2022-10-16T00:18:31;13.87;;;9.13;;
18748;SDS011;9503;53.560;10.246;2022-10-16T00:21:01;13.90;;;9.47;;
18748;SDS011;9503;53.560;10.246;2022-10-16T00:23:28;13.13;;;8.53;;
18748;SDS011;9503;53.560;10.246;2022-10-16T00:25:57;18.07;;;8.80;;
18748;SDS011;9503;53.560;10.246;2022-10-16T00:28:25;11.87;;;9.10;;
18748;SDS011;9503;53.560;10.246;2022-10-16T00:30:52;13.80;;;9.40;;
18748;SDS011;9503;53.560;10.246;2022-10-16T00:33:19;14.13;;;9.03;;
18748;SDS011;9503;53.560;10.246;2022-10-16T00:35:46;17.47;;;9.47;;
18748;SDS011;9503;53.560;10.246;2022-10-16T00:38:13;12.30;;;8.50;;
18748;SDS011;9503;53.560;10.246;2022-10-16T00:40:40;13.63;;;8.57;;
18748;SDS011;9503;53.560;10.246;2022-10-16T00:43:10;13.77;;;8.33;;
18748;SDS011;9503;53.560;10.246;2022-10-16T00:45:39;12.93;;;8.80;;
18748;SDS011;9503;53.560;10.246;2022-10-16T00:48:06;12.77;;;9.03;;
18748;SDS011;9503;53.560;10.246;2022-10-16T00:50:38;14.13;;;8.83;;
18748;SDS011;9503;53.560;10.246;2022-10-16T00:53:08;13.17;;;8.87;;
18748;SDS011;9503;53.560;10.246;2022-10-16T00:55:35;14.00;;;8.37;;
18748;SDS011;9503;53.560;10.246;2022-10-16T00:58:02;12.87;;;8.83;;
18748;SDS011;9503;53.560;10.246;2022-10-16T01:00:30;12.27;;;8.53;;
18748;SDS011;9503;53.560;10.246;2022-10-16T01:02:57;13.43;;;8.97;;
18748;SDS011;9503;53.560;10.246;2022-10-16T01:05:26;13.53;;;8.77;;
18748;SDS011;9503;53.560;10.246;2022-10-16T01:08:01;13.00;;;8.60;;
18748;SDS011;9503;53.560;10.246;2022-10-16T01:10:35;14.50;;;8.80;;
18748;SDS011;9503;53.560;10.246;2022-10-16T01:13:05;15.13;;;9.00;;
18748;SDS011;9503;53.560;10.246;2022-10-16T01:15:36;14.17;;;8.90;;
18748;SDS011;9503;53.560;10.246;2022-10-16T01:18:08;11.60;;;8.50;;
18748;SDS011;9503;53.560;10.246;2022-10-16T01:20:40;9.63;;;7.73;;
18748;SDS011;9503;53.560;10.246;2022-10-16T01:23:15;13.67;;;8.40;;
18748;SDS011;9503;53.560;10.246;2022-10-16T01:25:59;12.30;;;8.57;;
18748;SDS011;9503;53.560;10.246;2022-10-16T01:28:47;12.00;;;7.33;;
18748;SDS011;9503;53.560;10.246;2022-10-16T01:31:22;9.77;;;7.20;;
18748;SDS011;9503;53.560;10.246;2022-10-16T01:33:51;8.13;;;6.73;;
18748;SDS011;9503;53.560;10.246;2022-10-16T01:36:25;10.80;;;7.07;;
18748;SDS011;9503;53.560;10.246;2022-10-16T01:38:57;12.53;;;6.33;;
18748;SDS011;9503;53.560;10.246;2022-10-16T01:41:28;7.77;;;5.87;;
18748;SDS011;9503;53.560;10.246;2022-10-16T01:44:02;16.60;;;6.30;;
18748;SDS011;9503;53.560;10.246;2022-10-16T01:46:34;8.87;;;5.63;;
18748;SDS011;9503;53.560;10.246;2022-10-16T01:49:03;7.73;;;5.07;;
18748;SDS011;9503;53.560;10.246;2022-10-16T01:51:31;10.70;;;5.67;;
18748;SDS011;9503;53.560;10.246;2022-10-16T01:54:00;7.07;;;4.70;;
18748;SDS011;9503;53.560;10.246;2022-10-16T01:56:28;7.70;;;4.83;;
18748;SDS011;9503;53.560;10.246;2022-10-16T01:58:57;8.97;;;5.00;;
18748;SDS011;9503;53.560;10.246;2022-10-16T02:01:29;7.20;;;4.03;;
18748;SDS011;9503;53.560;10.246;2022-10-16T02:04:01;10.30;;;4.87;;
18748;SDS011;9503;53.560;10.246;2022-10-16T02:06:30;7.97;;;4.40;;
18748;SDS011;9503;53.560;10.246;2022-10-16T02:08:58;10.23;;;4.73;;
18748;SDS011;9503;53.560;10.246;2022-10-16T02:11:25;6.53;;;4.20;;
18748;SDS011;9503;53.560;10.246;2022-10-16T02:13:53;6.60;;;4.10;;
18748;SDS011;9503;53.560;10.246;2022-10-16T02:16:32;7.70;;;4.30;;
18748;SDS011;9503;53.560;10.246;2022-10-16T02:19:01;5.70;;;4.27;;
18748;SDS011;9503;53.560;10.246;2022-10-16T02:21:28;10.70;;;3.87;;
18748;SDS011;9503;53.560;10.246;2022-10-16T02:24:00;4.53;;;3.30;;
18748;SDS011;9503;53.560;10.246;2022-10-16T02:26:34;5.27;;;3.47;;
18748;SDS011;9503;53.560;10.246;2022-10-16T02:29:05;3.07;;;2.77;;
18748;SDS011;9503;53.560;10.246;2022-10-16T02:31:38;5.40;;;3.33;;
18748;SDS011;9503;53.560;10.246;2022-10-16T02:34:10;3.40;;;2.90;;
18748;SDS011;9503;53.560;10.246;2022-10-16T02:36:38;3.77;;;3.00;;
18748;SDS011;9503;53.560;10.246;2022-10-16T02:39:06;5.43;;;3.40;;
18748;SDS011;9503;53.560;10.246;2022-10-16T02:41:34;4.53;;;3.00;;
18748;SDS011;9503;53.560;10.246;2022-10-16T02:44:01;3.67;;;2.97;;
18748;SDS011;9503;53.560;10.246;2022-10-16T02:46:28;4.43;;;2.60;;
18748;SDS011;9503;53.560;10.246;2022-10-16T02:48:56;5.43;;;3.50;;
18748;SDS011;9503;53.560;10.246;2022-10-16T02:51:22;2.97;;;2.63;;
18748;SDS011;9503;53.560;10.246;2022-10-16T02:53:49;10.33;;;3.07;;
18748;SDS011;9503;53.560;10.246;2022-10-16T02:56:16;6.80;;;2.67;;
18748;SDS011;9503;53.560;10.246;2022-10-16T02:58:42;8.23;;;2.97;;
18748;SDS011;9503;53.560;10.246;2022-10-16T03:01:09;6.13;;;2.80;;
18748;SDS011;9503;53.560;10.246;2022-10-16T03:03:37;3.63;;;2.63;;
18748;SDS011;9503;53.560;10.246;2022-10-16T03:06:05;4.57;;;2.43;;
18748;SDS011;9503;53.560;10.246;2022-10-16T03:08:31;7.03;;;2.80;;
18748;SDS011;9503;53.560;10.246;2022-10-16T03:10:58;4.50;;;2.83;;
18748;SDS011;9503;53.560;10.246;2022-10-16T03:13:25;4.30;;;2.70;;
18748;SDS011;9503;53.560;10.246;2022-10-16T03:15:51;4.10;;;2.60;;
18748;SDS011;9503;53.560;10.246;2022-10-16T03:18:18;3.50;;;2.50;;
18748;SDS011;9503;53.560;10.246;2022-10-16T03:20:45;7.57;;;2.63;;
18748;SDS011;9503;53.560;10.246;2022-10-16T03:23:13;8.83;;;2.60;;
18748;SDS011;9503;53.560;10.246;2022-10-16T03:25:39;4.33;;;2.93;;
18748;SDS011;9503;53.560;10.246;2022-10-16T03:28:06;3.63;;;2.70;;
18748;SDS011;9503;53.560;10.246;2022-10-16T03:30:33;7.13;;;2.67;;
18748;SDS011;9503;53.560;10.246;2022-10-16T03:32:59;5.27;;;2.60;;
18748;SDS011;9503;53.560;10.246;2022-10-16T03:35:26;2.93;;;2.27;;
18748;SDS011;9503;53.560;10.246;2022-10-16T03:37:53;2.90;;;2.50;;
18748;SDS011;9503;53.560;10.246;2022-10-16T03:40:21;6.80;;;2.27;;
18748;SDS011;9503;53.560;10.246;2022-10-16T03:42:47;5.37;;;2.70;;
18748;SDS011;9503;53.560;10.246;2022-10-16T03:45:14;7.47;;;2.87;;
18748;SDS011;9503;53.560;10.246;2022-10-16T03:47:40;3.33;;;2.60;;
18748;SDS011;9503;53.560;10.246;2022-10-16T03:50:07;5.17;;;2.80;;
18748;SDS011;9503;53.560;10.246;2022-10-16T03:52:34;6.37;;;2.47;;
18748;SDS011;9503;53.560;10.246;2022-10-16T03:55:01;8.70;;;2.70;;
18748;SDS011;9503;53.560;10.246;2022-10-16T03:57:29;3.20;;;2.50;;
18748;SDS011;9503;53.560;10.246;2022-10-16T03:59:55;3.60;;;2.30;;
18748;SDS011;9503;53.560;10.246;2022-10-16T04:02:22;5.50;;;2.67;;
18748;SDS011;9503;53.560;10.246;2022-10-16T04:04:48;5.53;;;2.70;;
18748;SDS011;9503;53.560;10.246;2022-10-16T04:07:15;5.17;;;2.40;;
18748;SDS011;9503;53.560;10.246;2022-10-16T04:09:42;4.70;;;2.10;;
18748;SDS011;9503;53.560;10.246;2022-10-16T04:12:08;5.30;;;2.37;;
18748;SDS011;9503;53.560;10.246;2022-10-16T04:14:36;4.33;;;2.20;;
18748;SDS011;9503;53.560;10.246;2022-10-16T04:17:03;7.00;;;2.23;;
18748;SDS011;9503;53.560;10.246;2022-10-16T04:19:29;8.67;;;2.70;;
18748;SDS011;9503;53.560;10.246;2022-10-16T04:21:56;3.30;;;2.00;;
18748;SDS011;9503;53.560;10.246;2022-10-16T04:24:22;4.83;;;2.23;;
18748;SDS011;9503;53.560;10.246;2022-10-16T04:26:49;3.53;;;2.13;;
18748;SDS011;9503;53.560;10.246;2022-10-16T04:29:16;5.67;;;2.20;;
18748;SDS011;9503;53.560;10.246;2022-10-16T04:31:44;8.67;;;2.60;;
18748;SDS011;9503;53.560;10.246;2022-10-16T04:34:10;6.03;;;2.67;;
18748;SDS011;9503;53.560;10.246;2022-10-16T04:36:37;4.47;;;2.00;;
18748;SDS011;9503;53.560;10.246;2022-10-16T04:39:03;4.70;;;2.37;;
18748;SDS011;9503;53.560;10.246;2022-10-16T04:41:30;5.67;;;2.23;;
18748;SDS011;9503;53.560;10.246;2022-10-16T04:43:56;6.03;;;2.53;;
18748;SDS011;9503;53.560;10.246;2022-10-16T04:46:23;9.50;;;2.57;;
18748;SDS011;9503;53.560;10.246;2022-10-16T04:48:51;8.83;;;2.03;;
18748;SDS011;9503;53.560;10.246;2022-10-16T04:51:18;5.80;;;2.97;;
18748;SDS011;9503;53.560;10.246;2022-10-16T04:53:45;4.97;;;2.13;;
18748;SDS011;9503;53.560;10.246;2022-10-16T04:56:12;6.60;;;2.50;;
18748;SDS011;9503;53.560;10.246;2022-10-16T04:58:40;3.37;;;2.20;;
18748;SDS011;9503;53.560;10.246;2022-10-16T05:01:06;4.20;;;2.67;;
18748;SDS011;9503;53.560;10.246;2022-10-16T05:03:33;7.20;;;2.53;;
18748;SDS011;9503;53.560;10.246;2022-10-16T05:06:01;6.53;;;3.47;;
18748;SDS011;9503;53.560;10.246;2022-10-16T05:08:29;6.10;;;2.50;;
18748;SDS011;9503;53.560;10.246;2022-10-16T05:10:55;6.37;;;2.50;;
18748;SDS011;9503;53.560;10.246;2022-10-16T05:13:22;5.57;;;2.83;;
18748;SDS011;9503;53.560;10.246;2022-10-16T05:15:49;6.33;;;2.60;;
18748;SDS011;9503;53.560;10.246;2022-10-16T05:18:15;8.27;;;2.60;;
18748;SDS011;9503;53.560;10.246;2022-10-16T05:20:42;7.70;;;2.70;;
18748;SDS011;9503;53.560;10.246;2022-10-16T05:23:10;7.07;;;2.70;;
18748;SDS011;9503;53.560;10.246;2022-10-16T05:25:37;8.60;;;2.70;;
18748;SDS011;9503;53.560;10.246;2022-10-16T05:28:04;3.90;;;2.67;;
18748;SDS011;9503;53.560;10.246;2022-10-16T05:30:30;6.73;;;2.97;;
18748;SDS011;9503;53.560;10.246;2022-10-16T05:32:57;10.27;;;2.73;;
18748;SDS011;9503;53.560;10.246;2022-10-16T05:35:23;8.83;;;2.90;;
18748;SDS011;9503;53.560;10.246;2022-10-16T05:37:50;4.73;;;2.43;;
18748;SDS011;9503;53.560;10.246;2022-10-16T05:40:18;8.43;;;2.60;;
18748;SDS011;9503;53.560;10.246;2022-10-16T05:42:44;11.30;;;2.80;;
18748;SDS011;9503;53.560;10.246;2022-10-16T05:45:11;6.33;;;2.40;;
18748;SDS011;9503;53.560;10.246;2022-10-16T05:47:38;4.37;;;2.90;;
18748;SDS011;9503;53.560;10.246;2022-10-16T05:50:05;5.97;;;2.70;;
18748;SDS011;9503;53.560;10.246;2022-10-16T05:52:32;8.90;;;2.83;;
18748;SDS011;9503;53.560;10.246;2022-10-16T05:54:58;5.13;;;3.07;;
18748;SDS011;9503;53.560;10.246;2022-10-16T05:57:26;4.23;;;2.57;;
18748;SDS011;9503;53.560;10.246;2022-10-16T05:59:53;5.17;;;2.90;;
18748;SDS011;9503;53.560;10.246;2022-10-16T06:02:19;4.07;;;2.60;;
18748;SDS011;9503;53.560;10.246;2022-10-16T06:04:46;5.53;;;2.70;;
18748;SDS011;9503;53.560;10.246;2022-10-16T06:07:12;6.57;;;2.70;;
18748;SDS011;9503;53.560;10.246;2022-10-16T06:09:39;8.87;;;3.27;;
18748;SDS011;9503;53.560;10.246;2022-10-16T06:12:06;6.90;;;2.90;;
18748;SDS011;9503;53.560;10.246;2022-10-16T06:14:34;5.10;;;2.57;;
18748;SDS011;9503;53.560;10.246;2022-10-16T06:17:00;4.90;;;2.80;;
18748;SDS011;9503;53.560;10.246;2022-10-16T06:19:27;4.63;;;2.70;;
18748;SDS011;9503;53.560;10.246;2022-10-16T06:21:54;5.20;;;2.63;;
18748;SDS011;9503;53.560;10.246;2022-10-16T06:24:23;8.60;;;2.87;;
18748;SDS011;9503;53.560;10.246;2022-10-16T06:26:49;4.70;;;2.40;;
18748;SDS011;9503;53.560;10.246;2022-10-16T06:29:16;8.33;;;2.67;;
18748;SDS011;9503;53.560;10.246;2022-10-16T06:31:44;7.63;;;2.60;;
18748;SDS011;9503;53.560;10.246;2022-10-16T06:34:10;5.87;;;2.80;;
18748;SDS011;9503;53.560;10.246;2022-10-16T06:36:37;7.37;;;2.67;;
18748;SDS011;9503;53.560;10.246;2022-10-16T06:39:06;5.83;;;2.87;;
18748;SDS011;9503;53.560;10.246;2022-10-16T06:41:33;8.43;;;3.17;;
18748;SDS011;9503;53.560;10.246;2022-10-16T06:43:59;5.63;;;2.60;;
18748;SDS011;9503;53.560;10.246;2022-10-16T06:46:26;4.53;;;2.70;;
18748;SDS011;9503;53.560;10.246;2022-10-16T06:48:54;5.87;;;2.80;;
18748;SDS011;9503;53.560;10.246;2022-10-16T06:51:21;5.57;;;2.70;;
18748;SDS011;9503;53.560;10.246;2022-10-16T06:53:50;6.07;;;2.93;;
18748;SDS011;9503;53.560;10.246;2022-10-16T06:56:19;9.37;;;3.13;;
18748;SDS011;9503;53.560;10.246;2022-10-16T06:58:47;5.37;;;2.93;;
18748;SDS011;9503;53.560;10.246;2022-10-16T07:01:14;5.80;;;3.20;;
18748;SDS011;9503;53.560;10.246;2022-10-16T07:03:42;5.93;;;2.90;;
18748;SDS011;9503;53.560;10.246;2022-10-16T07:06:12;6.03;;;2.93;;
18748;SDS011;9503;53.560;10.246;2022-10-16T07:08:40;7.70;;;3.40;;
18748;SDS011;9503;53.560;10.246;2022-10-16T07:11:08;8.57;;;3.50;;
18748;SDS011;9503;53.560;10.246;2022-10-16T07:13:37;4.10;;;3.10;;
18748;SDS011;9503;53.560;10.246;2022-10-16T07:16:05;9.03;;;3.40;;
18748;SDS011;9503;53.560;10.246;2022-10-16T07:18:32;8.53;;;3.30;;
18748;SDS011;9503;53.560;10.246;2022-10-16T07:21:03;12.60;;;4.43;;
18748;SDS011;9503;53.560;10.246;2022-10-16T07:23:31;6.43;;;3.80;;
18748;SDS011;9503;53.560;10.246;2022-10-16T07:25:58;5.13;;;3.50;;
18748;SDS011;9503;53.560;10.246;2022-10-16T07:28:25;4.07;;;3.13;;
18748;SDS011;9503;53.560;10.246;2022-10-16T07:30:51;10.43;;;3.37;;
18748;SDS011;9503;53.560;10.246;2022-10-16T07:33:18;9.40;;;3.90;;
18748;SDS011;9503;53.560;10.246;2022-10-16T07:35:48;6.37;;;3.80;;
18748;SDS011;9503;53.560;10.246;2022-10-16T07:38:16;7.60;;;3.17;;
18748;SDS011;9503;53.560;10.246;2022-10-16T07:40:44;5.97;;;3.47;;
18748;SDS011;9503;53.560;10.246;2022-10-16T07:43:11;10.30;;;3.30;;
18748;SDS011;9503;53.560;10.246;2022-10-16T07:45:38;3.77;;;3.03;;
18748;SDS011;9503;53.560;10.246;2022-10-16T07:48:13;5.40;;;3.10;;
18748;SDS011;9503;53.560;10.246;2022-10-16T07:50:40;5.80;;;2.97;;
18748;SDS011;9503;53.560;10.246;2022-10-16T07:53:07;6.00;;;2.90;;
18748;SDS011;9503;53.560;10.246;2022-10-16T07:55:34;4.77;;;2.83;;
18748;SDS011;9503;53.560;10.246;2022-10-16T07:58:02;6.20;;;3.10;;
18748;SDS011;9503;53.560;10.246;2022-10-16T08:00:28;6.20;;;3.57;;
18748;SDS011;9503;53.560;10.246;2022-10-16T08:02:56;6.50;;;3.10;;
18748;SDS011;9503;53.560;10.246;2022-10-16T08:05:25;4.57;;;2.93;;
18748;SDS011;9503;53.560;10.246;2022-10-16T08:07:51;9.00;;;2.97;;
18748;SDS011;9503;53.560;10.246;2022-10-16T08:10:19;7.83;;;4.03;;
18748;SDS011;9503;53.560;10.246;2022-10-16T08:12:47;3.97;;;2.80;;
18748;SDS011;9503;53.560;10.246;2022-10-16T08:15:15;3.25;;;2.60;;
18748;SDS011;9503;53.560;10.246;2022-10-16T08:17:42;4.73;;;3.13;;
18748;SDS011;9503;53.560;10.246;2022-10-16T08:20:09;2.93;;;2.70;;
18748;SDS011;9503;53.560;10.246;2022-10-16T08:22:36;7.28;;;2.60;;
18748;SDS011;9503;53.560;10.246;2022-10-16T08:25:03;6.53;;;2.58;;
18748;SDS011;9503;53.560;10.246;2022-10-16T08:27:31;3.50;;;2.55;;
18748;SDS011;9503;53.560;10.246;2022-10-16T08:29:58;7.15;;;3.08;;
18748;SDS011;9503;53.560;10.246;2022-10-16T08:32:25;5.10;;;2.77;;
18748;SDS011;9503;53.560;10.246;2022-10-16T08:34:52;5.07;;;3.20;;
18748;SDS011;9503;53.560;10.246;2022-10-16T08:37:19;3.43;;;2.40;;
18748;SDS011;9503;53.560;10.246;2022-10-16T08:39:45;3.10;;;2.40;;
18748;SDS011;9503;53.560;10.246;2022-10-16T08:42:15;4.37;;;2.30;;
18748;SDS011;9503;53.560;10.246;2022-10-16T08:44:59;3.43;;;2.37;;
18748;SDS011;9503;53.560;10.246;2022-10-16T08:47:38;4.67;;;2.50;;
18748;SDS011;9503;53.560;10.246;2022-10-16T08:50:13;3.47;;;2.00;;
18748;SDS011;9503;53.560;10.246;2022-10-16T08:52:43;3.65;;;2.30;;
18748;SDS011;9503;53.560;10.246;2022-10-16T08:55:16;6.40;;;2.30;;
18748;SDS011;9503;53.560;10.246;2022-10-16T08:57:54;5.03;;;2.37;;
18748;SDS011;9503;53.560;10.246;2022-10-16T09:00:21;6.72;;;2.50;;
18748;SDS011;9503;53.560;10.246;2022-10-16T09:02:50;8.15;;;2.20;;
18748;SDS011;9503;53.560;10.246;2022-10-16T09:05:30;2.25;;;2.05;;
18748;SDS011;9503;53.560;10.246;2022-10-16T09:08:27;4.53;;;2.00;;
18748;SDS011;9503;53.560;10.246;2022-10-16T09:11:02;3.35;;;2.05;;
18748;SDS011;9503;53.560;10.246;2022-10-16T09:13:35;3.28;;;2.20;;
18748;SDS011;9503;53.560;10.246;2022-10-16T09:16:14;4.30;;;1.92;;
18748;SDS011;9503;53.560;10.246;2022-10-16T09:18:48;2.95;;;1.80;;
18748;SDS011;9503;53.560;10.246;2022-10-16T09:21:21;2.78;;;1.63;;
18748;SDS011;9503;53.560;10.246;2022-10-16T09:23:51;2.92;;;1.73;;
18748;SDS011;9503;53.560;10.246;2022-10-16T09:26:18;2.38;;;1.73;;
18748;SDS011;9503;53.560;10.246;2022-10-16T09:28:47;6.20;;;2.25;;
18748;SDS011;9503;53.560;10.246;2022-10-16T09:31:15;2.85;;;1.75;;
18748;SDS011;9503;53.560;10.246;2022-10-16T09:33:45;2.95;;;1.80;;
18748;SDS011;9503;53.560;10.246;2022-10-16T09:36:16;2.10;;;1.80;;
18748;SDS011;9503;53.560;10.246;2022-10-16T09:38:43;4.30;;;2.25;;
18748;SDS011;9503;53.560;10.246;2022-10-16T09:41:13;4.03;;;1.63;;
18748;SDS011;9503;53.560;10.246;2022-10-16T09:43:46;3.75;;;1.80;;
18748;SDS011;9503;53.560;10.246;2022-10-16T09:46:22;4.10;;;1.90;;
18748;SDS011;9503;53.560;10.246;2022-10-16T09:48:53;2.85;;;1.75;;
18748;SDS011;9503;53.560;10.246;2022-10-16T09:51:23;3.38;;;1.58;;
18748;SDS011;9503;53.560;10.246;2022-10-16T09:53:54;2.42;;;1.73;;
18748;SDS011;9503;53.560;10.246;2022-10-16T09:56:23;2.45;;;1.60;;
18748;SDS011;9503;53.560;10.246;2022-10-16T09:58:51;3.60;;;1.80;;
18748;SDS011;9503;53.560;10.246;2022-10-16T10:01:19;4.57;;;1.77;;
18748;SDS011;9503;53.560;10.246;2022-10-16T10:03:47;2.28;;;1.70;;
18748;SDS011;9503;53.560;10.246;2022-10-16T10:06:25;6.10;;;1.73;;
18748;SDS011;9503;53.560;10.246;2022-10-16T10:08:55;2.58;;;1.25;;
18748;SDS011;9503;53.560;10.246;2022-10-16T10:11:37;2.65;;;1.38;;
18748;SDS011;9503;53.560;10.246;2022-10-16T10:14:05;2.67;;;1.40;;
18748;SDS011;9503;53.560;10.246;2022-10-16T10:16:36;5.40;;;1.90;;
18748;SDS011;9503;53.560;10.246;2022-10-16T10:19:02;2.10;;;1.30;;
18748;SDS011;9503;53.560;10.246;2022-10-16T10:21:32;5.88;;;2.10;;
18748;SDS011;9503;53.560;10.246;2022-10-16T10:23:58;4.50;;;1.70;;
18748;SDS011;9503;53.560;10.246;2022-10-16T10:26:26;2.72;;;1.73;;
18748;SDS011;9503;53.560;10.246;2022-10-16T10:28:57;10.27;;;5.57;;
18748;SDS011;9503;53.560;10.246;2022-10-16T10:31:33;3.28;;;1.83;;
18748;SDS011;9503;53.560;10.246;2022-10-16T10:34:16;2.45;;;1.40;;
18748;SDS011;9503;53.560;10.246;2022-10-16T10:36:55;5.30;;;1.67;;
18748;SDS011;9503;53.560;10.246;2022-10-16T10:39:30;6.55;;;1.50;;
18748;SDS011;9503;53.560;10.246;2022-10-16T10:42:05;3.20;;;1.50;;
18748;SDS011;9503;53.560;10.246;2022-10-16T10:44:50;4.38;;;1.40;;
18748;SDS011;9503;53.560;10.246;2022-10-16T10:47:27;2.90;;;1.40;;
18748;SDS011;9503;53.560;10.246;2022-10-16T10:50:07;1.73;;;1.30;;
18748;SDS011;9503;53.560;10.246;2022-10-16T10:52:47;5.88;;;1.42;;
18748;SDS011;9503;53.560;10.246;2022-10-16T10:55:23;2.35;;;1.25;;
18748;SDS011;9503;53.560;10.246;2022-10-16T10:58:04;3.05;;;1.08;;
18748;SDS011;9503;53.560;10.246;2022-10-16T11:00:55;1.38;;;1.10;;
18748;SDS011;9503;53.560;10.246;2022-10-16T11:03:33;6.55;;;1.88;;
18748;SDS011;9503;53.560;10.246;2022-10-16T11:06:10;4.40;;;1.20;;
18748;SDS011;9503;53.560;10.246;2022-10-16T11:08:42;2.60;;;1.45;;
18748;SDS011;9503;53.560;10.246;2022-10-16T11:11:14;2.55;;;1.50;;
18748;SDS011;9503;53.560;10.246;2022-10-16T11:13:48;4.25;;;1.38;;
18748;SDS011;9503;53.560;10.246;2022-10-16T11:16:22;5.30;;;2.00;;
18748;SDS011;9503;53.560;10.246;2022-10-16T11:18:55;3.25;;;0.98;;
18748;SDS011;9503;53.560;10.246;2022-10-16T11:21:26;2.20;;;1.20;;
18748;SDS011;9503;53.560;10.246;2022-10-16T11:23:59;4.97;;;1.20;;
18748;SDS011;9503;53.560;10.246;2022-10-16T11:26:33;5.50;;;1.38;;
18748;SDS011;9503;53.560;10.246;2022-10-16T11:29:02;4.32;;;1.48;;
18748;SDS011;9503;53.560;10.246;2022-10-16T11:31:32;4.57;;;1.50;;
18748;SDS011;9503;53.560;10.246;2022-10-16T11:34:05;3.75;;;1.50;;
18748;SDS011;9503;53.560;10.246;2022-10-16T11:36:42;2.17;;;1.17;;
18748;SDS011;9503;53.560;10.246;2022-10-16T11:39:19;4.82;;;1.30;;
18748;SDS011;9503;53.560;10.246;2022-10-16T11:41:49;3.20;;;1.02;;
18748;SDS011;9503;53.560;10.246;2022-10-16T11:44:22;2.67;;;1.20;;
18748;SDS011;9503;53.560;10.246;2022-10-16T11:46:59;2.17;;;1.10;;
18748;SDS011;9503;53.560;10.246;2022-10-16T11:49:34;4.10;;;1.23;;
18748;SDS011;9503;53.560;10.246;2022-10-16T11:52:05;5.05;;;1.30;;
18748;SDS011;9503;53.560;10.246;2022-10-16T11:54:41;5.38;;;1.15;;
18748;SDS011;9503;53.560;10.246;2022-10-16T11:57:15;5.70;;;1.15;;
18748;SDS011;9503;53.560;10.246;2022-10-16T11:59:46;2.70;;;1.20;;
18748;SDS011;9503;53.560;10.246;2022-10-16T12:05:16;5.28;;;1.20;;
18748;SDS011;9503;53.560;10.246;2022-10-16T12:07:51;3.85;;;1.13;;
18748;SDS011;9503;53.560;10.246;2022-10-16T12:10:28;1.02;;;1.00;;
18748;SDS011;9503;53.560;10.246;2022-10-16T12:13:02;2.58;;;1.20;;
18748;SDS011;9503;53.560;10.246;2022-10-16T12:15:30;1.83;;;1.20;;
18748;SDS011;9503;53.560;10.246;2022-10-16T12:17:57;2.65;;;1.10;;
18748;SDS011;9503;53.560;10.246;2022-10-16T12:20:26;2.78;;;1.20;;
18748;SDS011;9503;53.560;10.246;2022-10-16T12:22:58;3.80;;;1.25;;
18748;SDS011;9503;53.560;10.246;2022-10-16T12:25:29;7.18;;;1.45;;
18748;SDS011;9503;53.560;10.246;2022-10-16T12:27:59;4.57;;;1.25;;
18748;SDS011;9503;53.560;10.246;2022-10-16T12:30:28;6.45;;;1.48;;
18748;SDS011;9503;53.560;10.246;2022-10-16T12:32:57;2.10;;;1.40;;
18748;SDS011;9503;53.560;10.246;2022-10-16T12:35:27;3.90;;;1.40;;
18748;SDS011;9503;53.560;10.246;2022-10-16T12:38:04;3.85;;;1.20;;
18748;SDS011;9503;53.560;10.246;2022-10-16T12:40:34;4.15;;;1.55;;
18748;SDS011;9503;53.560;10.246;2022-10-16T12:46:02;5.47;;;1.70;;
18748;SDS011;9503;53.560;10.246;2022-10-16T12:48:31;2.35;;;1.23;;
18748;SDS011;9503;53.560;10.246;2022-10-16T12:51:09;5.63;;;1.55;;
18748;SDS011;9503;53.560;10.246;2022-10-16T12:53:37;3.00;;;1.38;;
18748;SDS011;9503;53.560;10.246;2022-10-16T12:56:13;5.65;;;1.58;;
18748;SDS011;9503;53.560;10.246;2022-10-16T12:58:48;4.68;;;1.58;;
18748;SDS011;9503;53.560;10.246;2022-10-16T13:01:26;3.88;;;1.63;;
18748;SDS011;9503;53.560;10.246;2022-10-16T13:04:13;3.60;;;1.25;;
18748;SDS011;9503;53.560;10.246;2022-10-16T13:06:55;2.95;;;1.30;;
18748;SDS011;9503;53.560;10.246;2022-10-16T13:09:32;4.70;;;1.75;;
18748;SDS011;9503;53.560;10.246;2022-10-16T13:12:14;3.53;;;1.33;;
18748;SDS011;9503;53.560;10.246;2022-10-16T13:15:04;2.65;;;1.10;;
18748;SDS011;9503;53.560;10.246;2022-10-16T13:17:45;4.50;;;1.60;;
18748;SDS011;9503;53.560;10.246;2022-10-16T13:20:21;2.45;;;1.30;;
18748;SDS011;9503;53.560;10.246;2022-10-16T13:22:55;9.30;;;1.65;;
18748;SDS011;9503;53.560;10.246;2022-10-16T13:25:32;3.78;;;1.33;;
18748;SDS011;9503;53.560;10.246;2022-10-16T13:28:11;3.10;;;1.55;;
18748;SDS011;9503;53.560;10.246;2022-10-16T13:30:40;4.85;;;1.88;;
18748;SDS011;9503;53.560;10.246;2022-10-16T13:33:12;5.60;;;1.63;;
18748;SDS011;9503;53.560;10.246;2022-10-16T13:35:46;5.57;;;2.20;;
18748;SDS011;9503;53.560;10.246;2022-10-16T13:38:15;7.65;;;1.95;;
18748;SDS011;9503;53.560;10.246;2022-10-16T13:40:53;6.95;;;1.63;;
18748;SDS011;9503;53.560;10.246;2022-10-16T13:43:23;3.83;;;1.45;;
18748;SDS011;9503;53.560;10.246;2022-10-16T13:45:54;7.85;;;1.40;;
18748;SDS011;9503;53.560;10.246;2022-10-16T13:48:22;3.33;;;1.15;;
18748;SDS011;9503;53.560;10.246;2022-10-16T13:50:58;8.80;;;1.75;;
18748;SDS011;9503;53.560;10.246;2022-10-16T13:53:25;4.07;;;1.30;;
18748;SDS011;9503;53.560;10.246;2022-10-16T13:55:52;2.92;;;1.48;;
18748;SDS011;9503;53.560;10.246;2022-10-16T13:58:19;4.93;;;1.50;;
18748;SDS011;9503;53.560;10.246;2022-10-16T14:00:54;5.93;;;1.63;;
18748;SDS011;9503;53.560;10.246;2022-10-16T14:03:23;4.90;;;1.40;;
18748;SDS011;9503;53.560;10.246;2022-10-16T14:05:52;4.15;;;1.35;;
18748;SDS011;9503;53.560;10.246;2022-10-16T14:08:20;5.18;;;1.25;;
18748;SDS011;9503;53.560;10.246;2022-10-16T14:10:48;3.53;;;1.45;;
18748;SDS011;9503;53.560;10.246;2022-10-16T14:13:17;6.28;;;1.63;;
18748;SDS011;9503;53.560;10.246;2022-10-16T14:15:46;5.38;;;1.58;;
18748;SDS011;9503;53.560;10.246;2022-10-16T14:18:18;3.25;;;1.25;;
18748;SDS011;9503;53.560;10.246;2022-10-16T14:20:48;2.47;;;1.40;;
18748;SDS011;9503;53.560;10.246;2022-10-16T14:23:20;4.80;;;1.63;;
18748;SDS011;9503;53.560;10.246;2022-10-16T14:26:05;5.53;;;1.38;;
18748;SDS011;9503;53.560;10.246;2022-10-16T14:28:39;4.22;;;1.40;;
18748;SDS011;9503;53.560;10.246;2022-10-16T14:31:19;3.78;;;1.35;;
18748;SDS011;9503;53.560;10.246;2022-10-16T14:33:52;2.72;;;1.42;;
18748;SDS011;9503;53.560;10.246;2022-10-16T14:36:19;3.20;;;1.65;;
18748;SDS011;9503;53.560;10.246;2022-10-16T14:38:48;3.55;;;1.40;;
18748;SDS011;9503;53.560;10.246;2022-10-16T14:41:24;4.65;;;1.60;;
18748;SDS011;9503;53.560;10.246;2022-10-16T14:43:51;4.82;;;1.58;;
18748;SDS011;9503;53.560;10.246;2022-10-16T14:46:20;4.13;;;1.70;;
18748;SDS011;9503;53.560;10.246;2022-10-16T14:48:56;6.05;;;1.63;;
18748;SDS011;9503;53.560;10.246;2022-10-16T14:51:26;3.28;;;1.70;;
18748;SDS011;9503;53.560;10.246;2022-10-16T14:53:53;3.92;;;1.63;;
18748;SDS011;9503;53.560;10.246;2022-10-16T14:56:20;4.35;;;1.80;;
18748;SDS011;9503;53.560;10.246;2022-10-16T14:58:49;4.40;;;1.90;;
18748;SDS011;9503;53.560;10.246;2022-10-16T15:01:17;3.60;;;1.98;;
18748;SDS011;9503;53.560;10.246;2022-10-16T15:03:44;6.85;;;1.58;;
18748;SDS011;9503;53.560;10.246;2022-10-16T15:06:12;3.63;;;1.50;;
18748;SDS011;9503;53.560;10.246;2022-10-16T15:08:40;5.07;;;1.70;;